createdAt,value
2019-01-12T00:00:52.099Z,12.90
2019-01-12T00:01:52.110Z,13.50
2019-01-12T00:02:52.049Z,13.50
2019-01-12T00:03:52.030Z,13.80
2019-01-12T00:04:52.010Z,13.10
2019-01-12T00:05:51.997Z,13.20
2019-01-12T00:06:51.985Z,14.20
2019-01-12T00:07:52.013Z,14.00
2019-01-12T00:08:52.014Z,12.90
2019-01-12T00:09:52.005Z,14.00
2019-01-12T00:10:51.996Z,16.40
2019-01-12T00:11:51.933Z,14.00
2019-01-12T00:12:51.918Z,13.40
2019-01-12T00:13:51.910Z,14.70
2019-01-12T00:14:51.897Z,14.80
2019-01-12T00:15:51.891Z,12.90
2019-01-12T00:16:51.928Z,12.90
2019-01-12T00:17:51.868Z,14.10
2019-01-12T00:18:51.895Z,13.30
2019-01-12T00:19:51.845Z,12.90
2019-01-12T00:20:51.831Z,13.30
2019-01-12T00:21:51.826Z,10.90
2019-01-12T00:22:51.820Z,12.50
2019-01-12T00:23:51.804Z,12.30
2019-01-12T00:24:51.832Z,13.50
2019-01-12T00:25:51.817Z,13.70
2019-01-12T00:26:51.770Z,13.10
2019-01-12T00:27:51.761Z,11.70
2019-01-12T00:28:51.752Z,12.30
2019-01-12T00:29:51.741Z,11.40
2019-01-12T00:30:51.771Z,11.50
2019-01-12T00:31:51.763Z,11.60
2019-01-12T00:32:51.711Z,11.40
2019-01-12T00:33:51.697Z,10.00
2019-01-12T00:34:51.681Z,11.30
2019-01-12T00:35:51.711Z,11.10
2019-01-12T00:36:51.703Z,10.80
2019-01-12T00:37:51.662Z,11.10
2019-01-12T00:38:51.638Z,10.40
2019-01-12T00:39:51.625Z,10.50
2019-01-12T00:40:51.672Z,11.00
2019-01-12T00:41:51.645Z,10.90
2019-01-12T00:42:51.591Z,9.50
2019-01-12T00:43:51.587Z,10.40
2019-01-12T00:44:51.571Z,10.10
2019-01-12T00:45:51.559Z,10.40
2019-01-12T00:46:51.548Z,10.40
2019-01-12T00:47:51.578Z,9.00
2019-01-12T00:48:51.543Z,10.00
2019-01-12T00:49:51.513Z,8.70
2019-01-12T00:50:51.504Z,9.20
2019-01-12T00:51:51.493Z,8.90
2019-01-12T00:52:51.484Z,9.70
2019-01-12T00:53:51.514Z,9.20
2019-01-12T00:54:51.482Z,9.50
2019-01-12T00:55:51.449Z,8.70
2019-01-12T00:56:51.436Z,9.50
2019-01-12T00:57:51.425Z,9.00
2019-01-12T00:58:51.417Z,9.30
2019-01-12T00:59:51.456Z,8.40
2019-01-12T01:00:51.430Z,8.20
2019-01-12T01:01:51.384Z,7.30
2019-01-12T01:02:51.374Z,8.20
2019-01-12T01:03:51.379Z,7.20
2019-01-12T01:04:51.356Z,7.50
2019-01-12T01:05:51.381Z,7.50
2019-01-12T01:06:51.328Z,8.10
2019-01-12T01:07:51.323Z,7.20
2019-01-12T01:08:51.366Z,7.10
2019-01-12T01:09:52.264Z,6.80
2019-01-12T01:10:51.289Z,6.70
2019-01-12T01:11:51.272Z,7.00
2019-01-12T01:12:51.265Z,6.90
2019-01-12T01:13:51.293Z,6.80
2019-01-12T01:14:51.261Z,7.20
2019-01-12T01:15:51.234Z,7.50
2019-01-12T01:16:51.221Z,6.90
2019-01-12T01:17:51.211Z,7.10
2019-01-12T01:18:51.239Z,6.80
2019-01-12T01:19:51.186Z,7.60
2019-01-12T01:20:51.180Z,7.40
2019-01-12T01:21:51.174Z,7.10
2019-01-12T01:22:51.151Z,7.10
2019-01-12T01:23:51.189Z,6.90
2019-01-12T01:24:51.133Z,8.10
2019-01-12T01:25:51.119Z,7.50
2019-01-12T01:26:51.109Z,7.40
2019-01-12T01:27:51.122Z,7.50
2019-01-12T01:28:51.090Z,7.30
2019-01-12T01:29:51.134Z,7.70
2019-01-12T01:30:51.070Z,7.10
2019-01-12T01:31:51.059Z,7.90
2019-01-12T01:32:51.047Z,8.10
2019-01-12T01:33:51.035Z,8.10
2019-01-12T01:34:51.022Z,7.70
2019-01-12T01:35:51.063Z,8.60
2019-01-12T01:36:51.000Z,8.50
2019-01-12T01:37:51.011Z,8.70
2019-01-12T01:38:51.024Z,8.80
2019-01-12T01:39:50.966Z,9.10
2019-01-12T01:40:51.017Z,9.00
2019-01-12T01:41:50.955Z,8.90
2019-01-12T01:42:50.937Z,9.10
2019-01-12T01:43:50.928Z,8.40
2019-01-12T01:44:50.914Z,8.20
2019-01-12T01:45:50.902Z,8.80
2019-01-12T01:46:50.931Z,8.30
2019-01-12T01:47:50.877Z,9.10
2019-01-12T01:48:50.951Z,8.90
2019-01-12T01:49:50.863Z,8.00
2019-01-12T01:50:50.851Z,8.50
2019-01-12T01:51:50.833Z,8.00
2019-01-12T01:52:50.822Z,8.10
2019-01-12T01:53:50.857Z,8.20
2019-01-12T01:54:52.886Z,9.10
2019-01-12T01:55:50.797Z,8.30
2019-01-12T01:56:50.782Z,8.20
2019-01-12T01:57:50.771Z,7.40
2019-01-12T01:58:50.757Z,7.10
2019-01-12T01:59:50.798Z,7.50
2019-01-12T02:00:50.737Z,7.80
2019-01-12T02:01:50.733Z,8.20
2019-01-12T02:02:50.719Z,7.90
2019-01-12T02:03:50.718Z,7.90
2019-01-12T02:04:50.694Z,7.90
2019-01-12T02:05:50.735Z,7.90
2019-01-12T02:06:50.678Z,7.20
2019-01-12T02:07:50.664Z,7.70
2019-01-12T02:08:50.650Z,7.70
2019-01-12T02:09:50.644Z,7.40
2019-01-12T02:10:50.653Z,7.70
2019-01-12T02:11:50.653Z,7.80
2019-01-12T02:12:50.612Z,8.10
2019-01-12T02:13:50.592Z,7.70
2019-01-12T02:14:50.642Z,7.20
2019-01-12T02:15:50.571Z,7.10
2019-01-12T02:16:50.566Z,7.90
2019-01-12T02:17:50.606Z,8.00
2019-01-12T02:18:50.564Z,8.00
2019-01-12T02:19:50.528Z,7.90
2019-01-12T02:20:50.572Z,8.40
2019-01-12T02:21:50.509Z,8.30
2019-01-12T02:22:50.495Z,7.50
2019-01-12T02:23:50.487Z,7.10
2019-01-12T02:24:50.475Z,7.50
2019-01-12T02:25:50.462Z,7.60
2019-01-12T02:26:50.508Z,7.50
2019-01-12T02:27:50.445Z,8.10
2019-01-12T02:28:50.490Z,7.90
2019-01-12T02:29:50.417Z,7.10
2019-01-12T02:30:50.415Z,7.80
2019-01-12T02:31:50.397Z,7.30
2019-01-12T02:32:50.385Z,7.20
2019-01-12T02:33:50.378Z,7.00
2019-01-12T02:34:50.439Z,7.30
2019-01-12T02:35:50.360Z,7.10
2019-01-12T02:36:50.344Z,7.60
2019-01-12T02:37:50.383Z,6.70
2019-01-12T02:38:50.322Z,7.30
2019-01-12T02:39:50.308Z,7.20
2019-01-12T02:40:50.336Z,7.90
2019-01-12T02:41:50.324Z,7.70
2019-01-12T02:42:50.275Z,7.00
2019-01-12T02:43:50.305Z,7.80
2019-01-12T02:44:50.249Z,7.70
2019-01-12T02:45:50.248Z,7.90
2019-01-12T02:46:50.273Z,7.60
2019-01-12T02:47:50.233Z,7.90
2019-01-12T02:48:50.207Z,7.60
2019-01-12T02:49:50.197Z,7.70
2019-01-12T02:50:50.228Z,8.00
2019-01-12T02:51:50.183Z,8.00
2019-01-12T02:52:50.169Z,7.80
2019-01-12T02:53:50.160Z,8.50
2019-01-12T02:54:50.148Z,8.70
2019-01-12T02:55:50.193Z,8.80
2019-01-12T02:56:50.122Z,9.20
2019-01-12T02:57:50.168Z,8.90
2019-01-12T02:58:50.101Z,9.00
2019-01-12T02:59:50.098Z,8.80
2019-01-12T03:00:50.088Z,9.10
2019-01-12T03:01:50.076Z,9.10
2019-01-12T03:02:50.051Z,7.90
2019-01-12T03:03:50.075Z,9.30
2019-01-12T03:04:50.038Z,8.80
2019-01-12T03:05:50.028Z,9.70
2019-01-12T03:06:50.012Z,8.50
2019-01-12T03:07:50.013Z,8.20
2019-01-12T03:08:49.991Z,9.20
2019-01-12T03:09:50.016Z,9.60
2019-01-12T03:10:49.976Z,9.10
2019-01-12T03:11:49.957Z,8.80
2019-01-12T03:12:49.945Z,9.20
2019-01-12T03:13:49.950Z,9.60
2019-01-12T03:14:49.927Z,9.60
2019-01-12T03:15:49.981Z,10.60
2019-01-12T03:16:49.903Z,9.30
2019-01-12T03:17:49.888Z,11.40
2019-01-12T03:18:49.881Z,10.10
2019-01-12T03:19:49.868Z,10.50
2019-01-12T03:20:49.862Z,10.30
2019-01-12T03:21:49.879Z,10.20
2019-01-12T03:22:49.885Z,10.20
2019-01-12T03:23:49.829Z,9.60
2019-01-12T03:24:49.815Z,10.30
2019-01-12T03:25:49.837Z,10.70
2019-01-12T03:26:49.794Z,10.40
2019-01-12T03:27:49.780Z,10.60
2019-01-12T03:28:49.775Z,10.40
2019-01-12T03:29:49.771Z,10.60
2019-01-12T03:30:49.779Z,11.20
2019-01-12T03:31:49.742Z,10.90
2019-01-12T03:32:49.732Z,10.80
2019-01-12T03:33:49.727Z,10.50
2019-01-12T03:34:49.705Z,10.20
2019-01-12T03:35:49.692Z,10.90
2019-01-12T03:36:49.725Z,10.60
2019-01-12T03:37:49.674Z,11.70
2019-01-12T03:38:49.702Z,10.70
2019-01-12T03:39:49.648Z,11.10
2019-01-12T03:40:49.640Z,12.10
2019-01-12T03:41:49.625Z,11.10
2019-01-12T03:42:49.645Z,11.30
2019-01-12T03:43:49.614Z,11.50
2019-01-12T03:44:49.626Z,11.70
2019-01-12T03:45:49.580Z,11.40
2019-01-12T03:46:49.645Z,11.30
2019-01-12T03:47:49.593Z,10.50
2019-01-12T03:48:49.549Z,10.30
2019-01-12T03:49:49.538Z,11.10
2019-01-12T03:50:49.535Z,10.20
2019-01-12T03:51:49.552Z,10.70
2019-01-12T03:52:49.507Z,10.60
2019-01-12T03:53:49.499Z,11.00
2019-01-12T03:54:49.507Z,10.40
2019-01-12T03:55:49.476Z,9.90
2019-01-12T03:56:49.498Z,10.30
2019-01-12T03:57:49.477Z,10.70
2019-01-12T03:58:49.441Z,10.50
2019-01-12T03:59:49.427Z,10.70
2019-01-12T04:00:49.447Z,10.30
2019-01-12T04:01:49.411Z,10.20
2019-01-12T04:02:49.402Z,10.40
2019-01-12T04:03:49.394Z,9.80
2019-01-12T04:04:49.371Z,9.90
2019-01-12T04:05:49.399Z,9.70
2019-01-12T04:06:49.349Z,10.30
2019-01-12T04:07:49.343Z,10.40
2019-01-12T04:08:49.334Z,9.70
2019-01-12T04:09:49.364Z,8.50
2019-01-12T04:10:49.310Z,10.60
2019-01-12T04:11:49.297Z,9.70
2019-01-12T04:12:49.330Z,10.10
2019-01-12T04:13:49.278Z,9.50
2019-01-12T04:14:49.265Z,10.30
2019-01-12T04:15:49.292Z,10.30
2019-01-12T04:16:49.257Z,9.80
2019-01-12T04:17:49.232Z,10.20
2019-01-12T04:18:49.251Z,9.90
2019-01-12T04:19:49.207Z,10.20
2019-01-12T04:20:49.206Z,9.70
2019-01-12T04:21:49.186Z,10.70
2019-01-12T04:22:49.216Z,10.30
2019-01-12T04:23:49.195Z,11.40
2019-01-12T04:24:49.154Z,10.30
2019-01-12T04:25:49.147Z,10.80
2019-01-12T04:26:49.134Z,10.50
2019-01-12T04:27:49.127Z,9.70
2019-01-12T04:28:49.108Z,9.80
2019-01-12T04:29:49.141Z,10.20
2019-01-12T04:30:49.090Z,11.20
2019-01-12T04:31:49.077Z,10.50
2019-01-12T04:32:49.109Z,9.80
2019-01-12T04:33:49.058Z,9.60
2019-01-12T04:34:49.044Z,10.00
2019-01-12T04:35:49.030Z,10.30
2019-01-12T04:36:49.031Z,10.20
2019-01-12T04:37:49.017Z,9.90
2019-01-12T04:38:49.035Z,10.90
2019-01-12T04:39:48.989Z,11.10
2019-01-12T04:40:49.006Z,11.30
2019-01-12T04:41:48.966Z,11.40
2019-01-12T04:42:48.965Z,10.70
2019-01-12T04:43:48.947Z,10.90
2019-01-12T04:44:48.964Z,11.00
2019-01-12T04:45:48.934Z,11.00
2019-01-12T04:46:48.917Z,11.10
2019-01-12T04:47:48.904Z,11.20
2019-01-12T04:48:48.892Z,11.20
2019-01-12T04:49:48.911Z,11.80
2019-01-12T04:50:48.869Z,11.00
2019-01-12T04:51:48.858Z,11.40
2019-01-12T04:52:48.877Z,11.50
2019-01-12T04:53:48.838Z,10.60
2019-01-12T04:54:48.828Z,11.50
2019-01-12T04:55:48.845Z,11.10
2019-01-12T04:56:48.810Z,10.90
2019-01-12T04:57:48.932Z,10.00
2019-01-12T04:58:48.791Z,9.50
2019-01-12T04:59:48.770Z,10.20
2019-01-12T05:00:48.762Z,10.30
2019-01-12T05:01:48.748Z,10.00
2019-01-12T05:02:48.737Z,10.20
2019-01-12T05:03:48.774Z,10.80
2019-01-12T05:04:48.716Z,9.30
2019-01-12T05:05:48.704Z,10.10
2019-01-12T05:06:48.741Z,8.70
2019-01-12T05:07:48.684Z,9.80
2019-01-12T05:08:48.675Z,9.80
2019-01-12T05:09:48.673Z,9.40
2019-01-12T05:10:48.657Z,10.40
2019-01-12T05:11:48.677Z,9.40
2019-01-12T05:12:48.659Z,10.30
2019-01-12T05:13:48.615Z,10.20
2019-01-12T05:14:48.617Z,9.80
2019-01-12T05:15:48.632Z,9.80
2019-01-12T05:16:48.583Z,8.80
2019-01-12T05:17:48.578Z,8.50
2019-01-12T05:18:48.563Z,9.10
2019-01-12T05:19:48.553Z,7.30
2019-01-12T05:20:48.590Z,7.80
2019-01-12T05:21:48.530Z,8.00
2019-01-12T05:22:48.520Z,8.10
2019-01-12T05:23:48.510Z,8.30
2019-01-12T05:24:48.501Z,8.10
2019-01-12T05:25:49.068Z,7.80
2019-01-12T05:26:48.511Z,8.20
2019-01-12T05:27:48.465Z,8.00
2019-01-12T05:28:48.488Z,7.80
2019-01-12T05:29:48.441Z,7.90
2019-01-12T05:30:48.432Z,8.80
2019-01-12T05:31:48.422Z,8.60
2019-01-12T05:32:48.410Z,8.70
2019-01-12T05:33:48.397Z,9.50
2019-01-12T05:34:48.512Z,9.60
2019-01-12T05:35:48.389Z,9.70
2019-01-12T05:36:48.364Z,9.10
2019-01-12T05:37:48.367Z,9.70
2019-01-12T05:38:48.342Z,9.70
2019-01-12T05:39:48.332Z,10.00
2019-01-12T05:40:48.360Z,9.80
2019-01-12T05:41:48.309Z,9.30
2019-01-12T05:42:48.299Z,9.40
2019-01-12T05:43:48.288Z,8.10
2019-01-12T05:44:48.278Z,7.90
2019-01-12T05:45:48.282Z,8.60
2019-01-12T05:46:48.374Z,9.20
2019-01-12T05:47:48.254Z,8.60
2019-01-12T05:48:48.242Z,8.00
2019-01-12T05:49:48.225Z,8.40
2019-01-12T05:50:48.212Z,8.40
2019-01-12T05:51:48.201Z,8.30
2019-01-12T05:52:48.218Z,8.30
2019-01-12T05:53:48.179Z,8.70
2019-01-12T05:54:48.169Z,8.60
2019-01-12T05:55:48.164Z,9.10
2019-01-12T05:56:48.181Z,9.10
2019-01-12T05:57:48.138Z,8.60
2019-01-12T05:58:48.124Z,9.00
2019-01-12T05:59:48.113Z,8.60
2019-01-12T06:00:48.131Z,8.70
2019-01-12T06:01:48.178Z,9.10
2019-01-12T06:02:48.084Z,8.80
2019-01-12T06:03:48.113Z,8.40
2019-01-12T06:04:48.059Z,8.10
2019-01-12T06:05:48.052Z,8.90
2019-01-12T06:06:48.086Z,9.70
2019-01-12T06:07:48.039Z,9.40
2019-01-12T06:08:48.022Z,9.20
2019-01-12T06:09:48.016Z,9.20
2019-01-12T06:10:48.000Z,8.90
2019-01-12T06:11:47.981Z,9.00
2019-01-12T06:12:48.002Z,9.00
2019-01-12T06:13:47.980Z,9.60
2019-01-12T06:14:47.967Z,8.50
2019-01-12T06:15:47.953Z,8.60
2019-01-12T06:16:47.927Z,9.10
2019-01-12T06:17:47.960Z,8.80
2019-01-12T06:18:47.912Z,9.10
2019-01-12T06:19:47.914Z,8.30
2019-01-12T06:20:47.895Z,8.00
2019-01-12T06:21:47.871Z,8.00
2019-01-12T06:22:47.882Z,7.70
2019-01-12T06:23:47.885Z,8.10
2019-01-12T06:24:47.851Z,7.90
2019-01-12T06:25:47.833Z,8.50
2019-01-12T06:26:47.824Z,8.40
2019-01-12T06:27:47.811Z,8.10
2019-01-12T06:28:47.807Z,8.00
2019-01-12T06:29:47.828Z,8.10
2019-01-12T06:30:47.771Z,8.50
2019-01-12T06:31:47.786Z,8.80
2019-01-12T06:32:47.796Z,7.80
2019-01-12T06:33:47.746Z,7.50
2019-01-12T06:34:47.729Z,8.50
2019-01-12T06:35:47.722Z,7.70
2019-01-12T06:36:47.730Z,8.00
2019-01-12T06:37:47.745Z,7.60
2019-01-12T06:38:47.692Z,7.70
2019-01-12T06:39:47.681Z,7.40
2019-01-12T06:40:47.738Z,8.00
2019-01-12T06:41:47.704Z,6.80
2019-01-12T06:42:47.649Z,6.90
2019-01-12T06:43:47.629Z,7.40
2019-01-12T06:44:47.684Z,7.20
2019-01-12T06:45:47.632Z,7.20
2019-01-12T06:46:47.605Z,7.00
2019-01-12T06:47:47.594Z,6.70
2019-01-12T06:48:47.580Z,6.10
2019-01-12T06:49:47.571Z,6.30
2019-01-12T06:50:47.607Z,6.50
2019-01-12T06:51:47.545Z,6.80
2019-01-12T06:52:47.541Z,6.20
2019-01-12T06:53:47.563Z,6.00
2019-01-12T06:54:47.542Z,5.40
2019-01-12T06:55:47.528Z,5.50
2019-01-12T06:56:47.497Z,5.50
2019-01-12T06:57:47.514Z,5.00
2019-01-12T06:58:47.466Z,5.10
2019-01-12T06:59:47.455Z,5.20
2019-01-12T07:00:47.462Z,5.30
2019-01-12T07:01:47.469Z,5.30
2019-01-12T07:02:47.429Z,5.00
2019-01-12T07:03:47.410Z,5.40
2019-01-12T07:04:47.416Z,5.00
2019-01-12T07:05:47.405Z,5.20
2019-01-12T07:06:47.392Z,4.60
2019-01-12T07:07:47.401Z,4.00
2019-01-12T07:08:47.366Z,3.90
2019-01-12T07:09:47.361Z,4.00
2019-01-12T07:10:47.343Z,3.80
2019-01-12T07:11:47.359Z,3.70
2019-01-12T07:12:47.326Z,3.70
2019-01-12T07:13:47.347Z,4.10
2019-01-12T07:14:47.333Z,4.00
2019-01-12T07:15:47.322Z,4.20
2019-01-12T07:16:47.279Z,4.20
2019-01-12T07:17:47.266Z,4.30
2019-01-12T07:18:47.257Z,4.30
2019-01-12T07:19:47.237Z,4.70
2019-01-12T07:20:47.259Z,4.60
2019-01-12T07:21:47.221Z,4.50
2019-01-12T07:22:47.208Z,4.80
2019-01-12T07:23:47.195Z,4.30
2019-01-12T07:24:47.194Z,4.30
2019-01-12T07:25:47.181Z,4.70
2019-01-12T07:26:47.192Z,4.80
2019-01-12T07:27:47.157Z,4.70
2019-01-12T07:28:47.140Z,5.10
2019-01-12T07:29:47.149Z,4.50
2019-01-12T07:30:47.149Z,5.30
2019-01-12T07:31:47.119Z,4.50
2019-01-12T07:32:47.116Z,5.30
2019-01-12T07:33:47.102Z,5.40
2019-01-12T07:34:47.083Z,5.30
2019-01-12T07:35:47.071Z,5.20
2019-01-12T07:36:47.085Z,5.40
2019-01-12T07:37:47.061Z,5.60
2019-01-12T07:38:47.074Z,5.60
2019-01-12T07:39:47.054Z,5.40
2019-01-12T07:40:47.012Z,5.70
2019-01-12T07:41:46.999Z,5.50
2019-01-12T07:42:46.990Z,5.60
2019-01-12T07:43:46.984Z,5.50
2019-01-12T07:44:46.983Z,5.70
2019-01-12T07:45:46.992Z,5.40
2019-01-12T07:46:46.953Z,5.60
2019-01-12T07:47:46.929Z,5.90
2019-01-12T07:48:46.935Z,5.70
2019-01-12T07:49:46.910Z,5.40
2019-01-12T07:50:46.901Z,5.60
2019-01-12T07:51:46.919Z,5.60
2019-01-12T07:52:46.894Z,5.50
2019-01-12T07:53:46.868Z,5.70
2019-01-12T07:54:47.871Z,5.60
2019-01-12T07:55:46.903Z,5.80
2019-01-12T07:56:46.845Z,5.50
2019-01-12T07:57:46.826Z,5.60
2019-01-12T07:58:46.826Z,5.30
2019-01-12T07:59:46.798Z,5.80
2019-01-12T08:00:46.787Z,5.70
2019-01-12T08:01:46.806Z,5.50
2019-01-12T08:02:46.771Z,5.70
2019-01-12T08:03:46.768Z,5.40
2019-01-12T08:04:46.808Z,5.50
2019-01-12T08:05:46.742Z,6.00
2019-01-12T08:06:46.749Z,5.90
2019-01-12T08:07:46.749Z,5.70
2019-01-12T08:08:46.729Z,5.80
2019-01-12T08:09:46.694Z,5.90
2019-01-12T08:10:46.682Z,6.10
2019-01-12T08:11:46.667Z,6.10
2019-01-12T08:12:46.661Z,6.10
2019-01-12T08:13:46.731Z,5.90
2019-01-12T08:14:46.644Z,6.40
2019-01-12T08:15:46.623Z,6.80
2019-01-12T08:16:46.625Z,6.20
2019-01-12T08:17:46.619Z,6.90
2019-01-12T08:18:46.591Z,6.10
2019-01-12T08:19:46.648Z,7.20
2019-01-12T08:20:46.595Z,8.00
2019-01-12T08:21:46.556Z,6.90
2019-01-12T08:22:46.551Z,7.60
2019-01-12T08:23:46.537Z,7.30
2019-01-12T08:24:46.531Z,8.00
2019-01-12T08:25:46.547Z,7.70
2019-01-12T08:26:46.504Z,7.20
2019-01-12T08:27:46.492Z,7.20
2019-01-12T08:28:46.488Z,7.50
2019-01-12T08:29:46.473Z,8.00
2019-01-12T08:30:46.472Z,8.00
2019-01-12T08:31:46.480Z,7.70
2019-01-12T08:32:46.436Z,7.40
2019-01-12T08:33:46.420Z,7.70
2019-01-12T08:34:46.414Z,7.20
2019-01-12T08:35:46.437Z,8.30
2019-01-12T08:36:46.388Z,8.10
2019-01-12T08:37:46.379Z,8.50
2019-01-12T08:38:46.377Z,9.10
2019-01-12T08:39:46.363Z,8.90
2019-01-12T08:40:46.352Z,9.10
2019-01-12T08:41:46.397Z,9.80
2019-01-12T08:42:46.358Z,8.90
2019-01-12T08:43:46.338Z,9.70
2019-01-12T08:44:46.315Z,9.10
2019-01-12T08:45:46.320Z,9.70
2019-01-12T08:46:46.290Z,9.50
2019-01-12T08:47:46.332Z,10.40
2019-01-12T08:48:46.256Z,10.90
2019-01-12T08:49:46.262Z,10.60
2019-01-12T08:50:46.270Z,10.10
2019-01-12T08:51:46.229Z,10.70
2019-01-12T08:52:46.215Z,10.90
2019-01-12T08:53:46.365Z,10.30
2019-01-12T08:54:46.205Z,10.90
2019-01-12T08:55:46.191Z,10.90
2019-01-12T08:56:46.197Z,11.20
2019-01-12T08:57:46.169Z,11.30
2019-01-12T08:58:46.211Z,11.30
2019-01-12T08:59:46.207Z,11.00
2019-01-12T09:00:46.126Z,11.20
2019-01-12T09:01:46.116Z,12.30
2019-01-12T09:02:46.103Z,12.10
2019-01-12T09:03:46.127Z,11.30
2019-01-12T09:04:46.123Z,11.70
2019-01-12T09:05:46.115Z,12.30
2019-01-12T09:06:46.057Z,12.70
2019-01-12T09:07:46.075Z,12.80
2019-01-12T09:08:46.070Z,12.70
2019-01-12T09:09:46.060Z,13.00
2019-01-12T09:10:46.048Z,12.90
2019-01-12T09:11:46.016Z,12.70
2019-01-12T09:12:46.009Z,12.90
2019-01-12T09:13:46.047Z,12.50
2019-01-12T09:14:45.974Z,12.50
2019-01-12T09:15:45.984Z,12.70
2019-01-12T09:16:45.978Z,13.20
2019-01-12T09:17:45.974Z,12.70
2019-01-12T09:18:45.998Z,12.70
2019-01-12T09:19:45.959Z,13.00
2019-01-12T09:20:45.906Z,12.80
2019-01-12T09:21:45.914Z,13.80
2019-01-12T09:22:45.884Z,13.50
2019-01-12T09:23:45.880Z,13.30
2019-01-12T09:24:45.887Z,14.30
2019-01-12T09:25:45.882Z,13.30
2019-01-12T09:26:45.840Z,13.40
2019-01-12T09:27:45.829Z,12.90
2019-01-12T09:28:45.819Z,13.70
2019-01-12T09:29:45.814Z,13.70
2019-01-12T09:30:48.593Z,13.10
2019-01-12T09:31:45.827Z,14.00
2019-01-12T09:32:45.775Z,13.20
2019-01-12T09:33:45.762Z,13.70
2019-01-12T09:34:45.762Z,13.10
2019-01-12T09:35:45.745Z,13.50
2019-01-12T09:36:45.731Z,14.20
2019-01-12T09:37:45.776Z,13.10
2019-01-12T09:38:45.702Z,14.10
2019-01-12T09:39:45.697Z,14.30
2019-01-12T09:40:45.685Z,12.80
2019-01-12T09:41:45.752Z,12.50
2019-01-12T09:42:45.667Z,12.40
2019-01-12T09:43:45.712Z,12.80
2019-01-12T09:44:45.652Z,12.70
2019-01-12T09:45:45.631Z,11.60
2019-01-12T09:46:45.624Z,12.50
2019-01-12T09:47:45.612Z,12.90
2019-01-12T09:48:45.600Z,12.30
2019-01-12T09:49:45.659Z,11.70
2019-01-12T09:50:45.585Z,13.20
2019-01-12T09:51:45.573Z,11.60
2019-01-12T09:52:45.571Z,11.80
2019-01-12T09:53:45.558Z,11.60
2019-01-12T09:54:45.538Z,11.20
2019-01-12T09:55:45.553Z,10.60
2019-01-12T09:56:51.560Z,10.00
2019-01-12T09:57:46.516Z,10.80
2019-01-12T09:58:45.532Z,10.50
2019-01-12T09:59:45.477Z,10.00
2019-01-12T10:00:45.466Z,10.40
2019-01-12T10:02:54.892Z,12.10
2019-01-12T10:03:54.842Z,10.60
2019-01-12T10:04:54.823Z,9.80
2019-01-12T10:05:55.378Z,10.10
2019-01-12T10:06:54.871Z,9.50
2019-01-12T10:07:54.871Z,9.50
2019-01-12T10:08:54.780Z,10.40
2019-01-12T10:09:54.787Z,9.80
2019-01-12T10:10:54.764Z,10.20
2019-01-12T10:11:54.745Z,10.30
2019-01-12T10:12:54.747Z,10.60
2019-01-12T10:13:54.797Z,9.60
2019-01-12T10:14:54.722Z,9.70
2019-01-12T10:15:54.713Z,9.30
2019-01-12T10:16:54.703Z,9.10
2019-01-12T10:17:54.717Z,9.40
2019-01-12T10:18:54.687Z,10.20
2019-01-12T10:19:54.679Z,9.90
2019-01-12T10:20:54.658Z,9.40
2019-01-12T10:21:54.632Z,10.10
2019-01-12T10:22:54.719Z,9.60
2019-01-12T10:23:54.613Z,8.70
2019-01-12T10:24:54.603Z,8.60
2019-01-12T10:25:54.623Z,8.00
2019-01-12T10:26:58.541Z,8.10
2019-01-12T10:27:54.569Z,8.10
2019-01-12T10:28:54.596Z,8.00
2019-01-12T10:29:54.551Z,8.10
2019-01-12T10:30:54.602Z,7.50
2019-01-12T10:31:54.527Z,8.00
2019-01-12T10:32:54.518Z,8.20
2019-01-12T10:33:54.520Z,7.60
2019-01-12T10:34:54.489Z,8.10
2019-01-12T10:35:54.501Z,7.70
2019-01-12T10:36:54.531Z,6.20
2019-01-12T10:37:54.478Z,7.20
2019-01-12T10:38:54.465Z,6.10
2019-01-12T10:39:54.433Z,7.10
2019-01-12T10:40:54.429Z,6.20
2019-01-12T10:41:54.423Z,6.60
2019-01-12T10:42:54.525Z,6.10
2019-01-12T10:43:54.434Z,6.40
2019-01-12T10:44:54.385Z,6.60
2019-01-12T10:45:54.374Z,7.00
2019-01-12T10:46:54.358Z,6.50
2019-01-12T10:47:54.350Z,7.10
2019-01-12T10:48:54.399Z,6.50
2019-01-12T10:49:54.346Z,6.50
2019-01-12T10:50:54.370Z,6.00
2019-01-12T10:51:54.301Z,6.40
2019-01-12T10:52:54.355Z,6.10
2019-01-12T10:53:54.283Z,5.80
2019-01-12T10:54:54.306Z,6.10
2019-01-12T10:55:54.255Z,6.20
2019-01-12T10:56:54.298Z,6.30
2019-01-12T10:57:54.276Z,6.50
2019-01-12T10:58:54.248Z,6.20
2019-01-12T10:59:54.257Z,6.80
2019-01-12T11:00:54.240Z,6.40
2019-01-12T11:01:54.196Z,6.40
2019-01-12T11:02:54.184Z,6.50
2019-01-12T11:03:54.170Z,6.60
2019-01-12T11:04:54.156Z,6.90
2019-01-12T11:05:54.157Z,6.90
2019-01-12T11:06:54.198Z,6.30
2019-01-12T11:07:54.133Z,6.80
2019-01-12T11:08:54.131Z,7.10
2019-01-12T11:09:54.104Z,6.70
2019-01-12T11:10:54.130Z,6.90
2019-01-12T11:11:54.094Z,7.60
2019-01-12T11:12:54.104Z,7.90
2019-01-12T11:13:54.113Z,7.80
2019-01-12T11:14:54.045Z,7.30
2019-01-12T11:15:54.062Z,7.20
2019-01-12T11:16:54.061Z,7.00
2019-01-12T11:17:54.027Z,6.90
2019-01-12T11:18:54.099Z,7.10
2019-01-12T11:19:54.058Z,7.10
2019-01-12T11:20:53.988Z,7.30
2019-01-12T11:22:01.656Z,7.00
2019-01-12T11:22:53.964Z,8.00
2019-01-12T11:23:53.956Z,6.90
2019-01-12T11:24:54.028Z,6.60
2019-01-12T11:25:53.932Z,7.00
2019-01-12T11:26:53.930Z,7.40
2019-01-12T11:27:53.904Z,6.50
2019-01-12T11:28:53.896Z,7.10
2019-01-12T11:29:53.887Z,7.00
2019-01-12T11:30:53.918Z,6.80
2019-01-12T11:31:53.911Z,7.10
2019-01-12T11:32:53.866Z,7.20
2019-01-12T11:33:53.846Z,7.30
2019-01-12T11:35:01.487Z,7.50
2019-01-12T11:35:53.878Z,7.00
2019-01-12T11:36:53.813Z,7.00
2019-01-12T11:37:53.797Z,7.30
2019-01-12T11:38:53.789Z,6.80
2019-01-12T11:39:53.779Z,7.20
2019-01-12T11:40:53.764Z,7.90
2019-01-12T11:41:54.022Z,7.20
2019-01-12T11:42:53.739Z,7.20
2019-01-12T11:43:53.729Z,6.90
2019-01-12T11:44:53.716Z,7.40
2019-01-12T11:45:53.706Z,7.30
2019-01-12T11:46:53.734Z,6.90
2019-01-12T11:47:53.690Z,7.60
2019-01-12T11:48:53.738Z,8.10
2019-01-12T11:49:53.662Z,7.70
2019-01-12T11:50:53.650Z,7.60
2019-01-12T11:51:53.665Z,7.60
2019-01-12T11:52:53.634Z,7.70
2019-01-12T11:53:53.635Z,8.10
2019-01-12T11:54:53.646Z,7.90
2019-01-12T11:55:53.602Z,8.00
2019-01-12T11:56:53.583Z,7.90
2019-01-12T11:57:53.601Z,8.00
2019-01-12T11:58:53.591Z,7.90
2019-01-12T11:59:53.555Z,7.90
2019-01-12T12:00:53.603Z,8.20
2019-01-12T12:01:53.535Z,8.20
2019-01-12T12:02:53.543Z,8.70
2019-01-12T12:03:53.547Z,8.80
2019-01-12T12:04:53.495Z,8.70
2019-01-12T12:06:01.642Z,8.20
2019-01-12T12:06:53.555Z,8.60
2019-01-12T12:07:53.460Z,9.20
2019-01-12T12:08:53.515Z,8.40
2019-01-12T12:09:53.454Z,8.40
2019-01-12T12:10:53.442Z,8.40
2019-01-12T12:11:53.426Z,8.80
2019-01-12T12:12:53.411Z,8.50
2019-01-12T12:13:53.406Z,8.30
2019-01-12T12:14:53.440Z,8.00
2019-01-12T12:15:53.373Z,8.70
2019-01-12T12:16:53.417Z,9.00
2019-01-12T12:17:53.356Z,8.30
2019-01-12T12:18:53.344Z,8.70
2019-01-12T12:19:53.341Z,8.10
2019-01-12T12:20:53.374Z,7.80
2019-01-12T12:21:53.310Z,7.60
2019-01-12T12:22:53.307Z,8.50
2019-01-12T12:23:53.313Z,7.90
2019-01-12T12:24:53.283Z,8.40
2019-01-12T12:25:53.274Z,8.20
2019-01-12T12:26:53.337Z,6.90
2019-01-12T12:27:53.247Z,7.50
2019-01-12T12:28:53.233Z,7.40
2019-01-12T12:29:53.245Z,8.30
2019-01-12T12:30:53.209Z,7.90
2019-01-12T12:31:53.258Z,8.20
2019-01-12T12:32:53.192Z,8.10
2019-01-12T12:33:53.186Z,7.20
2019-01-12T12:34:53.171Z,7.70
2019-01-12T12:35:53.243Z,7.40
2019-01-12T12:36:53.164Z,7.30
2019-01-12T12:37:53.153Z,6.70
2019-01-12T12:38:53.127Z,6.60
2019-01-12T12:39:53.132Z,7.10
2019-01-12T12:40:53.114Z,7.30
2019-01-12T12:41:53.150Z,7.40
2019-01-12T12:42:53.096Z,7.80
2019-01-12T12:43:53.066Z,8.10
2019-01-12T12:44:53.057Z,6.90
2019-01-12T12:45:53.049Z,6.80
2019-01-12T12:46:53.036Z,7.40
2019-01-12T12:47:53.084Z,7.20
2019-01-12T12:48:53.005Z,7.10
2019-01-12T12:49:53.009Z,7.00
2019-01-12T12:50:52.994Z,6.70
2019-01-12T12:51:52.981Z,6.90
2019-01-12T12:52:52.967Z,7.00
2019-01-12T12:53:53.046Z,6.30
2019-01-12T12:54:52.952Z,6.50
2019-01-12T12:55:52.934Z,6.70
2019-01-12T12:56:52.924Z,6.50
2019-01-12T12:57:52.922Z,7.90
2019-01-12T12:58:52.925Z,7.10
2019-01-12T12:59:52.963Z,6.90
2019-01-12T13:00:52.889Z,7.50
2019-01-12T13:01:52.876Z,7.10
2019-01-12T13:02:52.879Z,6.60
2019-01-12T13:03:52.843Z,7.20
2019-01-12T13:04:52.849Z,6.70
2019-01-12T13:05:52.875Z,7.10
2019-01-12T13:06:52.815Z,6.50
2019-01-12T13:07:52.865Z,6.70
2019-01-12T13:08:52.806Z,6.50
2019-01-12T13:09:52.776Z,6.00
2019-01-12T13:10:52.778Z,6.20
2019-01-12T13:11:52.786Z,6.00